createdAt,value
2022-10-24T00:01:16.205Z,5.13
2022-10-24T00:03:43.480Z,5.07
2022-10-24T00:06:12.279Z,5.60
2022-10-24T00:08:39.828Z,5.20
2022-10-24T00:11:21.906Z,4.15
2022-10-24T00:13:49.209Z,4.05
2022-10-24T00:16:16.146Z,3.58
2022-10-24T00:18:43.453Z,4.65
2022-10-24T00:21:10.566Z,4.00
2022-10-24T00:23:37.736Z,3.63
2022-10-24T00:26:05.846Z,4.05
2022-10-24T00:28:35.150Z,3.85
2022-10-24T00:31:02.542Z,4.20
2022-10-24T00:33:29.428Z,3.40
2022-10-24T00:35:56.336Z,3.80
2022-10-24T00:38:23.305Z,4.45
2022-10-24T00:40:50.267Z,4.50
2022-10-24T00:43:20.456Z,4.30
2022-10-24T00:45:49.537Z,4.70
2022-10-24T00:48:29.360Z,4.90
2022-10-24T00:51:01.217Z,4.05
2022-10-24T00:53:29.989Z,5.35
2022-10-24T00:56:00.021Z,5.40
2022-10-24T00:58:29.873Z,4.88
2022-10-24T01:00:56.834Z,4.55
2022-10-24T01:03:24.269Z,4.60
2022-10-24T01:06:03.629Z,6.85
2022-10-24T01:08:30.436Z,7.40
2022-10-24T01:11:14.240Z,9.23
2022-10-24T01:14:22.631Z,10.07
2022-10-24T01:16:59.029Z,9.40
2022-10-24T01:19:46.965Z,8.93
2022-10-24T01:22:46.141Z,8.75
2022-10-24T01:25:39.066Z,10.55
2022-10-24T01:28:20.451Z,10.23
2022-10-24T01:31:01.855Z,11.23
2022-10-24T01:33:38.192Z,10.70
2022-10-24T01:36:14.692Z,10.38
2022-10-24T01:38:46.706Z,10.40
2022-10-24T01:41:23.400Z,9.35
2022-10-24T01:43:56.071Z,9.30
2022-10-24T01:46:32.138Z,9.50
2022-10-24T01:49:09.122Z,9.55
2022-10-24T01:51:38.734Z,7.78
2022-10-24T01:54:06.161Z,8.40
2022-10-24T01:56:33.323Z,8.65
2022-10-24T01:59:31.071Z,8.40
2022-10-24T02:02:30.468Z,6.63
2022-10-24T02:05:02.741Z,6.95
2022-10-24T02:07:33.924Z,7.90
2022-10-24T02:10:05.729Z,6.63
2022-10-24T02:12:33.018Z,6.10
2022-10-24T02:15:08.173Z,6.25
2022-10-24T02:17:35.154Z,6.80
2022-10-24T02:20:02.825Z,5.75
2022-10-24T02:22:40.266Z,6.88
2022-10-24T02:25:14.424Z,5.57
2022-10-24T02:27:49.012Z,6.97
2022-10-24T02:30:22.978Z,6.05
2022-10-24T02:32:53.896Z,6.80
2022-10-24T02:35:26.637Z,7.05
2022-10-24T02:38:00.097Z,7.13
2022-10-24T02:40:27.069Z,7.27
2022-10-24T02:42:56.429Z,9.65
2022-10-24T02:45:24.415Z,7.90
2022-10-24T02:47:56.923Z,7.55
2022-10-24T02:50:24.321Z,7.00
2022-10-24T02:52:51.214Z,9.07
2022-10-24T02:55:18.273Z,7.80
2022-10-24T02:57:45.162Z,9.55
2022-10-24T03:00:12.567Z,9.88
2022-10-24T03:02:39.405Z,8.70
2022-10-24T03:05:06.629Z,8.25
2022-10-24T03:25:43.618Z,20.35
2022-10-24T03:28:10.434Z,19.33
2022-10-24T03:30:37.286Z,17.33
2022-10-24T03:33:04.419Z,14.65
2022-10-24T03:35:31.310Z,13.25
2022-10-24T03:37:58.319Z,12.18
2022-10-24T03:40:25.079Z,12.05
2022-10-24T03:42:51.946Z,13.40
2022-10-24T03:45:18.894Z,12.98
2022-10-24T03:47:45.784Z,10.20
2022-10-24T03:50:12.686Z,12.93
2022-10-24T03:52:39.532Z,9.60
2022-10-24T03:55:06.805Z,11.48
2022-10-24T03:57:33.675Z,10.70
2022-10-24T04:00:00.511Z,8.95
2022-10-24T04:02:27.359Z,10.35
2022-10-24T04:04:54.241Z,12.50
2022-10-24T04:07:21.052Z,12.45
2022-10-24T04:09:47.949Z,9.48
2022-10-24T04:12:15.531Z,8.85
2022-10-24T04:14:42.452Z,9.23
2022-10-24T04:17:09.461Z,11.23
2022-10-24T04:19:36.445Z,10.05
2022-10-24T04:22:03.392Z,8.15
2022-10-24T04:24:30.525Z,6.47
2022-10-24T04:26:57.454Z,7.22
2022-10-24T04:29:24.493Z,8.98
2022-10-24T04:31:51.451Z,10.45
2022-10-24T04:34:18.369Z,11.25
2022-10-24T04:36:45.205Z,11.52
2022-10-24T04:39:12.198Z,13.65
2022-10-24T04:41:39.035Z,13.88
2022-10-24T04:44:05.865Z,16.10
2022-10-24T04:46:33.068Z,15.88
2022-10-24T04:49:02.963Z,18.02
2022-10-24T04:51:30.121Z,17.65
2022-10-24T04:53:56.996Z,16.92
2022-10-24T04:56:26.006Z,19.35
2022-10-24T04:58:53.141Z,18.05
2022-10-24T05:01:20.112Z,16.80
2022-10-24T05:03:47.069Z,16.55
2022-10-24T05:06:14.325Z,15.93
2022-10-24T05:08:41.191Z,18.13
2022-10-24T05:11:09.945Z,18.33
2022-10-24T05:13:37.540Z,18.90
2022-10-24T05:16:05.991Z,18.95
2022-10-24T05:18:32.985Z,18.75
2022-10-24T05:21:00.600Z,17.08
2022-10-24T05:23:28.352Z,17.58
2022-10-24T05:25:55.225Z,18.13
2022-10-24T05:28:22.038Z,16.90
2022-10-24T05:30:49.024Z,18.23
2022-10-24T05:33:15.920Z,17.83
2022-10-24T05:35:43.345Z,14.80
2022-10-24T05:38:10.466Z,16.40
2022-10-24T05:40:37.364Z,17.10
2022-10-24T05:43:04.294Z,13.82
2022-10-24T05:45:31.216Z,16.80
2022-10-24T05:47:58.193Z,16.33
2022-10-24T05:50:26.749Z,17.02
2022-10-24T05:52:54.045Z,15.35
2022-10-24T05:55:20.794Z,14.68
2022-10-24T05:57:48.137Z,14.35
2022-10-24T06:00:16.994Z,14.32
2022-10-24T06:05:16.659Z,14.32
2022-10-24T06:07:43.889Z,16.13
2022-10-24T06:10:12.186Z,14.98
2022-10-24T06:12:39.410Z,13.90
2022-10-24T06:15:09.065Z,15.18
2022-10-24T06:17:36.158Z,13.77
2022-10-24T06:20:03.346Z,13.57
2022-10-24T06:22:30.188Z,13.15
2022-10-24T06:24:57.306Z,13.52
2022-10-24T06:27:24.280Z,11.88
2022-10-24T06:29:51.132Z,11.65
2022-10-24T06:32:18.422Z,11.57
2022-10-24T06:34:45.215Z,10.43
2022-10-24T06:37:12.207Z,10.05
2022-10-24T06:39:39.012Z,10.85
2022-10-24T06:42:05.889Z,10.77
2022-10-24T06:44:32.874Z,10.07
2022-10-24T06:46:59.681Z,9.02
2022-10-24T06:49:26.521Z,8.85
2022-10-24T06:51:53.833Z,8.48
2022-10-24T06:54:21.216Z,8.40
2022-10-24T06:56:49.332Z,8.23
2022-10-24T06:59:17.753Z,7.78
2022-10-24T07:01:45.694Z,9.48
2022-10-24T07:04:12.685Z,7.93
2022-10-24T07:06:40.351Z,7.75
2022-10-24T07:09:10.222Z,6.65
2022-10-24T07:11:39.761Z,7.82
2022-10-24T07:14:09.146Z,5.97
2022-10-24T07:16:36.884Z,7.32
2022-10-24T07:19:04.320Z,7.65
2022-10-24T07:21:32.992Z,7.35
2022-10-24T07:24:00.256Z,9.30
2022-10-24T07:26:28.986Z,8.23
2022-10-24T07:31:34.817Z,8.18
2022-10-24T07:34:04.220Z,8.25
2022-10-24T07:36:31.390Z,7.00
2022-10-24T07:38:59.226Z,6.47
2022-10-24T07:41:28.477Z,8.90
2022-10-24T07:43:57.673Z,7.35
2022-10-24T07:46:26.339Z,8.02
2022-10-24T07:48:54.430Z,7.75
2022-10-24T07:51:22.346Z,7.07
2022-10-24T07:53:50.014Z,5.97
2022-10-24T07:56:17.739Z,5.60
2022-10-24T07:58:46.133Z,5.32
2022-10-24T08:01:19.221Z,5.82
2022-10-24T08:03:46.958Z,5.25
2022-10-24T08:06:17.844Z,5.15
2022-10-24T08:08:45.272Z,4.45
2022-10-24T08:11:15.037Z,4.22
2022-10-24T08:13:42.073Z,4.72
2022-10-24T08:16:11.713Z,5.78
2022-10-24T08:18:40.050Z,5.70
2022-10-24T08:21:09.562Z,6.93
2022-10-24T08:23:39.253Z,4.93
2022-10-24T08:26:07.906Z,6.13
2022-10-24T08:28:35.604Z,5.20
2022-10-24T08:31:05.370Z,4.57
2022-10-24T08:33:32.813Z,3.97
2022-10-24T08:36:02.176Z,4.95
2022-10-24T08:38:29.713Z,4.78
2022-10-24T08:40:58.096Z,4.15
2022-10-24T08:43:25.897Z,3.38
2022-10-24T08:46:37.148Z,3.33
2022-10-24T08:49:30.176Z,3.45
2022-10-24T08:52:05.038Z,2.95
2022-10-24T08:54:39.816Z,2.85
2022-10-24T08:57:10.760Z,2.58
2022-10-24T08:59:38.624Z,2.47
2022-10-24T09:02:12.620Z,2.22
2022-10-24T09:04:51.374Z,1.95
2022-10-24T09:07:22.127Z,2.58
2022-10-24T09:09:51.881Z,3.72
2022-10-24T09:12:22.073Z,4.50
2022-10-24T09:14:59.445Z,4.10
2022-10-24T09:17:29.305Z,4.00
2022-10-24T09:20:00.845Z,3.33
2022-10-24T09:22:32.482Z,3.22
2022-10-24T09:25:01.839Z,3.17
2022-10-24T09:27:32.812Z,3.20
2022-10-24T09:30:00.315Z,2.50
2022-10-24T09:32:33.492Z,2.63
2022-10-24T09:35:04.236Z,2.92
2022-10-24T09:37:47.517Z,5.32
2022-10-24T09:40:28.082Z,5.30
2022-10-24T09:43:16.330Z,5.80
2022-10-24T09:45:50.697Z,5.25
2022-10-24T09:48:42.177Z,3.42
2022-10-24T09:51:09.332Z,3.72
2022-10-24T09:53:41.012Z,3.65
2022-10-24T09:56:15.239Z,3.85
2022-10-24T09:58:42.930Z,4.65
2022-10-24T10:01:23.030Z,6.07
2022-10-24T10:04:09.495Z,5.00
2022-10-24T10:06:44.796Z,6.18
2022-10-24T10:09:14.573Z,5.10
2022-10-24T10:11:49.339Z,5.75
2022-10-24T10:14:29.868Z,6.35
2022-10-24T10:17:02.930Z,5.35
2022-10-24T10:19:35.049Z,6.90
2022-10-24T10:22:20.722Z,4.97
2022-10-24T10:24:47.914Z,5.85
2022-10-24T10:27:25.676Z,4.43
2022-10-24T10:30:21.989Z,4.28
2022-10-24T10:33:14.541Z,5.22
2022-10-24T10:35:51.700Z,5.80
2022-10-24T10:38:43.330Z,5.75
2022-10-24T10:41:22.071Z,5.93
2022-10-24T10:43:57.881Z,6.18
2022-10-24T10:46:57.766Z,5.97
2022-10-24T10:49:30.874Z,5.03
2022-10-24T10:52:05.885Z,5.57
2022-10-24T10:54:59.934Z,5.13
2022-10-24T11:00:21.505Z,4.95
2022-10-24T11:03:16.408Z,5.72
2022-10-24T11:06:01.618Z,4.72
2022-10-24T11:08:46.588Z,5.28
2022-10-24T11:11:19.285Z,3.70
2022-10-24T11:13:54.865Z,5.77
2022-10-24T11:16:27.273Z,6.63
2022-10-24T11:18:59.837Z,7.55
2022-10-24T11:21:30.368Z,7.35
2022-10-24T11:24:18.635Z,5.57
2022-10-24T11:26:59.102Z,4.80
2022-10-24T11:29:51.060Z,5.60
2022-10-24T11:32:22.015Z,5.70
2022-10-24T11:34:56.169Z,5.30
2022-10-24T11:37:36.003Z,5.68
2022-10-24T11:40:15.741Z,6.18
2022-10-24T11:42:45.688Z,4.85
2022-10-24T11:45:16.352Z,5.07
2022-10-24T11:48:23.405Z,3.35
2022-10-24T11:50:55.993Z,4.03
2022-10-24T11:53:45.843Z,3.05
2022-10-24T11:56:27.146Z,3.10
2022-10-24T11:59:06.962Z,2.55
2022-10-24T12:01:55.520Z,2.70
2022-10-24T12:04:40.472Z,2.67
2022-10-24T12:07:25.953Z,2.83
2022-10-24T12:10:30.285Z,2.85
2022-10-24T12:13:22.281Z,2.00
2022-10-24T12:16:16.905Z,2.60
2022-10-24T12:21:21.048Z,2.75
2022-10-24T12:24:00.565Z,2.22
2022-10-24T12:26:35.489Z,2.42
2022-10-24T12:29:05.609Z,2.10
2022-10-24T12:31:34.661Z,2.22
2022-10-24T12:34:19.418Z,1.95
2022-10-24T12:37:32.547Z,2.30
2022-10-24T12:39:59.913Z,2.30
2022-10-24T12:42:26.731Z,2.03
2022-10-24T12:45:06.221Z,2.30
2022-10-24T12:47:43.422Z,2.30
2022-10-24T12:50:22.562Z,1.85
2022-10-24T12:53:14.029Z,2.10
2022-10-24T12:55:40.918Z,2.45
2022-10-24T12:58:25.355Z,1.83
2022-10-24T13:01:01.607Z,1.70
2022-10-24T13:03:46.868Z,1.40
2022-10-24T13:06:45.506Z,2.00
2022-10-24T13:09:15.936Z,1.30
2022-10-24T13:12:01.097Z,1.45
2022-10-24T13:14:36.513Z,1.02
2022-10-24T13:17:39.541Z,1.40
2022-10-24T13:20:14.217Z,1.50
2022-10-24T13:22:45.150Z,1.40
2022-10-24T13:25:51.585Z,1.80
2022-10-24T13:28:22.468Z,1.33
2022-10-24T13:30:53.373Z,1.77
2022-10-24T13:33:32.412Z,1.80
2022-10-24T13:36:26.979Z,2.10
2022-10-24T13:38:58.203Z,1.67
2022-10-24T13:41:43.234Z,2.15
2022-10-24T13:44:18.107Z,1.73
2022-10-24T13:46:57.233Z,1.92
2022-10-24T13:49:31.275Z,2.20
2022-10-24T13:54:35.934Z,2.08
2022-10-24T13:59:37.319Z,2.67
2022-10-24T14:02:15.302Z,2.40
2022-10-24T14:04:48.026Z,3.15
2022-10-24T14:07:26.076Z,2.35
2022-10-24T14:10:21.066Z,3.20
2022-10-24T14:12:52.094Z,2.80
2022-10-24T14:15:22.416Z,3.00
2022-10-24T14:18:08.550Z,2.60
2022-10-24T14:20:37.198Z,2.80
2022-10-24T14:23:22.111Z,2.50
2022-10-24T14:25:55.429Z,3.97
2022-10-24T14:28:34.397Z,3.93
2022-10-24T14:31:04.733Z,3.35
2022-10-24T14:33:41.398Z,4.38
2022-10-24T14:36:08.966Z,3.33
2022-10-24T14:38:37.511Z,5.15
2022-10-24T14:41:10.135Z,3.67
2022-10-24T14:43:42.872Z,3.70
2022-10-24T14:46:12.538Z,4.90
2022-10-24T14:48:49.672Z,4.28
2022-10-24T14:51:31.965Z,6.32
2022-10-24T14:54:01.964Z,6.80
2022-10-24T14:56:30.922Z,6.03
2022-10-24T14:59:00.011Z,7.00
2022-10-24T15:01:27.290Z,7.30
2022-10-24T15:04:03.161Z,5.03
2022-10-24T15:06:40.325Z,6.63
2022-10-24T15:09:13.309Z,5.80
2022-10-24T15:27:41.762Z,4.05
2022-10-24T15:30:20.785Z,6.20
2022-10-24T15:32:49.885Z,7.15
2022-10-24T15:35:18.464Z,3.80
2022-10-24T15:37:56.793Z,8.07
2022-10-24T15:40:30.947Z,6.97
2022-10-24T15:45:25.016Z,5.65
2022-10-24T15:47:53.124Z,5.70
2022-10-24T15:52:52.774Z,5.32
2022-10-24T15:55:22.508Z,4.22
2022-10-24T15:57:50.003Z,4.40
2022-10-24T16:00:20.543Z,3.70
2022-10-24T16:02:50.177Z,5.10
2022-10-24T16:05:26.751Z,3.60
2022-10-24T16:07:54.048Z,2.95
2022-10-24T16:10:22.691Z,4.90
2022-10-24T16:12:50.664Z,4.25
2022-10-24T16:15:28.338Z,3.88
2022-10-24T16:17:55.816Z,2.90
2022-10-24T16:20:22.701Z,3.60
2022-10-24T16:22:50.085Z,3.95
2022-10-24T16:25:20.750Z,2.28
2022-10-24T16:27:51.094Z,3.75
2022-10-24T16:30:20.668Z,3.70
2022-10-24T16:32:48.374Z,3.60
2022-10-24T16:35:21.912Z,4.00
2022-10-24T16:37:48.771Z,6.53
2022-10-24T16:40:15.970Z,3.53
2022-10-24T16:42:43.180Z,4.38
2022-10-24T16:45:10.701Z,4.85
2022-10-24T16:47:37.707Z,4.53
2022-10-24T16:50:05.208Z,4.63
2022-10-24T16:52:32.243Z,4.22
2022-10-24T16:54:59.094Z,5.90
2022-10-24T16:57:26.183Z,10.52
2022-10-24T16:59:52.973Z,3.53
2022-10-24T17:02:19.842Z,4.50
2022-10-24T17:04:46.678Z,4.40
2022-10-24T17:07:14.520Z,4.80
2022-10-24T17:09:41.501Z,4.80
2022-10-24T17:12:08.868Z,4.65
2022-10-24T17:14:37.575Z,5.18
2022-10-24T17:17:05.149Z,5.88
2022-10-24T17:19:32.552Z,5.15
2022-10-24T17:21:59.549Z,5.07
2022-10-24T17:24:26.959Z,5.53
2022-10-24T17:26:54.414Z,3.95
2022-10-24T17:29:33.206Z,4.90
2022-10-24T17:32:00.743Z,4.57
2022-10-24T17:34:28.606Z,9.07
2022-10-24T17:37:13.802Z,5.47
2022-10-24T17:39:46.414Z,6.93
2022-10-24T17:42:13.514Z,5.28
2022-10-24T17:44:40.907Z,5.80
2022-10-24T17:47:08.122Z,5.70
2022-10-24T17:49:35.014Z,4.28
2022-10-24T17:52:02.054Z,6.97
2022-10-24T17:54:28.893Z,4.82
2022-10-24T17:56:55.717Z,5.72
2022-10-24T17:59:22.655Z,7.28
2022-10-24T18:01:49.759Z,6.72
2022-10-24T18:04:16.737Z,6.60
2022-10-24T18:06:43.654Z,6.93
2022-10-24T18:09:11.538Z,5.63
2022-10-24T18:11:40.108Z,6.05
2022-10-24T18:14:07.493Z,6.97
2022-10-24T18:16:34.555Z,6.28
2022-10-24T18:19:01.441Z,5.60
2022-10-24T18:21:28.584Z,6.43
2022-10-24T18:23:55.933Z,5.43
2022-10-24T18:26:25.224Z,5.93
2022-10-24T18:28:54.450Z,6.00
2022-10-24T18:31:24.530Z,5.15
2022-10-24T18:33:51.813Z,4.63
2022-10-24T18:36:24.694Z,4.88
2022-10-24T18:38:54.214Z,5.32
2022-10-24T18:41:34.767Z,9.00
2022-10-24T18:44:13.817Z,4.22
2022-10-24T18:46:41.145Z,4.20
2022-10-24T18:49:09.514Z,4.75
2022-10-24T18:51:41.848Z,5.15
2022-10-24T18:54:16.971Z,4.75
2022-10-24T18:56:44.166Z,4.50
2022-10-24T18:59:13.886Z,4.72
2022-10-24T19:02:02.567Z,4.18
2022-10-24T19:04:29.636Z,5.53
2022-10-24T19:06:59.668Z,4.82
2022-10-24T19:09:26.945Z,5.55
2022-10-24T19:11:53.934Z,3.90
2022-10-24T19:14:21.814Z,3.70
2022-10-24T19:16:50.799Z,3.30
2022-10-24T19:19:30.415Z,3.35
2022-10-24T19:21:57.352Z,4.60
2022-10-24T19:24:24.214Z,4.07
2022-10-24T19:26:51.207Z,5.15
2022-10-24T19:29:18.246Z,4.85
2022-10-24T19:31:45.815Z,3.08
2022-10-24T19:34:12.850Z,2.28
2022-10-24T19:36:39.782Z,3.20
2022-10-24T19:39:07.101Z,3.45
2022-10-24T19:41:34.132Z,2.67
2022-10-24T19:44:01.060Z,2.97
2022-10-24T19:46:28.209Z,3.10
2022-10-24T19:48:56.121Z,3.50
2022-10-24T19:51:23.525Z,3.45
2022-10-24T19:53:52.056Z,3.55
2022-10-24T19:56:25.393Z,3.80
2022-10-24T19:58:54.077Z,3.13
2022-10-24T20:01:23.852Z,2.95
2022-10-24T20:03:51.545Z,3.25
2022-10-24T20:06:24.064Z,3.03
2022-10-24T20:08:51.037Z,3.10
2022-10-24T20:11:20.548Z,2.40
2022-10-24T20:13:48.400Z,3.10
2022-10-24T20:16:15.194Z,3.47
2022-10-24T20:18:45.593Z,2.45
2022-10-24T20:21:15.079Z,1.90
2022-10-24T20:23:41.932Z,3.15
2022-10-24T20:26:14.895Z,3.20
2022-10-24T20:28:44.244Z,3.20
2022-10-24T20:31:24.461Z,2.97
2022-10-24T20:33:51.707Z,2.85
2022-10-24T20:36:21.423Z,3.28
2022-10-24T20:38:49.499Z,3.00
2022-10-24T20:41:16.387Z,2.97
2022-10-24T20:43:43.327Z,2.55
2022-10-24T20:46:10.554Z,2.75
2022-10-24T20:48:37.593Z,2.28
2022-10-24T20:51:15.989Z,2.63
2022-10-24T20:53:43.489Z,2.90
2022-10-24T20:56:12.997Z,2.65
2022-10-24T20:58:42.064Z,2.53
2022-10-24T21:01:14.904Z,3.05
2022-10-24T21:03:42.562Z,2.83
2022-10-24T21:06:21.188Z,2.88
2022-10-24T21:08:49.347Z,2.53
2022-10-24T21:11:24.943Z,2.17
2022-10-24T21:13:56.325Z,3.45
2022-10-24T21:16:24.621Z,2.78
2022-10-24T21:18:51.835Z,2.53
2022-10-24T21:21:20.176Z,2.63
2022-10-24T21:23:51.213Z,3.08
2022-10-24T21:26:18.529Z,3.40
2022-10-24T21:28:45.473Z,4.07
2022-10-24T21:31:17.490Z,3.78
2022-10-24T21:33:44.835Z,3.58
2022-10-24T21:36:14.504Z,3.80
2022-10-24T21:38:57.149Z,3.20
2022-10-24T21:41:24.998Z,3.08
2022-10-24T21:43:52.230Z,3.50
2022-10-24T21:46:27.213Z,3.45
2022-10-24T21:48:55.086Z,3.80
2022-10-24T21:51:24.729Z,3.28
2022-10-24T21:54:22.049Z,3.78
2022-10-24T21:56:49.048Z,3.40
2022-10-24T21:59:19.194Z,3.58
2022-10-24T22:01:47.966Z,4.55
2022-10-24T22:04:15.935Z,3.75
2022-10-24T22:06:43.693Z,3.50
2022-10-24T22:09:14.587Z,4.65
2022-10-24T22:11:42.425Z,3.65
2022-10-24T22:14:11.754Z,3.92
2022-10-24T22:16:38.890Z,4.18
2022-10-24T22:19:06.674Z,4.93
2022-10-24T22:21:38.914Z,4.45
2022-10-24T22:24:09.166Z,4.85
2022-10-24T22:26:36.978Z,5.30
2022-10-24T22:29:04.953Z,5.10
2022-10-24T22:31:32.117Z,5.18
2022-10-24T22:33:59.626Z,5.05
2022-10-24T22:36:43.418Z,5.28
2022-10-24T22:39:16.456Z,5.35
2022-10-24T22:41:44.275Z,4.82
2022-10-24T22:44:12.762Z,5.80
2022-10-24T22:47:17.026Z,5.80
2022-10-24T22:50:05.360Z,5.87
2022-10-24T22:52:32.749Z,11.77
2022-10-24T22:55:00.030Z,16.52
2022-10-24T22:57:28.488Z,10.52
2022-10-24T22:59:55.583Z,21.08
2022-10-24T23:02:33.187Z,12.18
2022-10-24T23:05:05.217Z,6.95
2022-10-24T23:08:09.778Z,6.53
2022-10-24T23:10:39.671Z,6.95
2022-10-24T23:13:06.801Z,6.18
2022-10-24T23:15:34.026Z,6.45
2022-10-24T23:18:01.168Z,6.45
2022-10-24T23:20:42.942Z,7.47
2022-10-24T23:23:28.378Z,6.93
2022-10-24T23:26:23.211Z,6.13
2022-10-24T23:29:12.831Z,6.88
2022-10-24T23:31:39.984Z,7.22
2022-10-24T23:34:09.650Z,7.22
2022-10-24T23:36:36.982Z,8.10
2022-10-24T23:39:04.062Z,15.10
2022-10-24T23:41:31.230Z,9.10
2022-10-24T23:43:58.305Z,7.40
2022-10-24T23:46:37.251Z,7.55
2022-10-24T23:49:33.267Z,7.70
2022-10-24T23:52:18.797Z,6.88
2022-10-24T23:54:45.937Z,7.15
2022-10-24T23:57:18.180Z,8.00
2022-10-24T23:59:45.294Z,6.55
